• Join FlightAware (Why Join?)
  • Login
  • US Flag 
06:15PM EDT


 

Airport Tracker/Info


-or-


 

Live Flight TrackerFlight Track Log ✈ FDX1347 ✈ 14-May-2013 ✈ KALB - KMEM

Flight Track Log - Related Links

Times and Time Zones

All times are in EDT time to prevent confusion due to time zone crossing. See the FDX1347 flight status page for this flight to view local times or setup timezone preferences in your user account.

Time Position Orientation Groundspeed Altitude Reporting Facility
EDT Latitude Longitude Course Direction KTS MPH feet Rate Location/Type
09:54PM 42.7256 -73.8108 245° Southwest 172 198 1,500  Level Boston Center
09:55PM 42.7169 -73.8361 245° Southwest 179 206 3,000 2,220 Climbing Boston Center
09:55PM 42.7206 -73.8786 277° West 168 193 4,300 2,160 Climbing Boston Center
09:56PM 42.7236 -73.9633 273° West 202 232 6,800 2,940 Climbing Boston Center
09:57PM 42.7306 -74.0653 275° West 243 280 10,200 2,520 Climbing Boston Center
09:58PM 42.6831 -74.1769 240° Southwest 310 357 11,900 2,100 Climbing Boston Center
09:59PM 42.6208 -74.2883 233° Southwest 357 411 14,500 1,920 Climbing Boston Center
10:06PM 42.2340 -75.0950 233° Southwest 449 517 25,900 1,800 Climbing FlightAware
10:06PM 42.1940 -75.1900 240° Southwest 450 518 26,900 1,380 Climbing FlightAware
10:07PM 42.1440 -75.3050 240° Southwest 458 527 27,900 1,260 Climbing FlightAware
10:08PM 42.1000 -75.4040 239° Southwest 466 536 28,700 1,560 Climbing FlightAware
10:08PM 42.0550 -75.5060 239° Southwest 461 531 30,000 1,800 Climbing FlightAware
10:09PM 42.0190 -75.5890 240° Southwest 452 520 31,100 720 Climbing FlightAware
10:10PM 41.9760 -75.6890 240° Southwest 452 520 31,100 2,100 Level FlightAware
10:10PM 41.9260 -75.7980 238° Southwest 449 517 34,100 3,000 Climbing FlightAware
10:11PM 41.8633 -75.9388 239° Southwest 445 512 35,900 1,680 Climbing FlightAware ADS-B
10:12PM 41.8308 -76.0129 240° Southwest 449 517 36,500 1,320 Climbing FlightAware ADS-B
10:12PM 41.7982 -76.0844 239° Southwest 448 516 37,300 1,740 Climbing FlightAware ADS-B
10:13PM 41.7652 -76.1593 239° Southwest 440 506 38,300 1,440 Climbing FlightAware ADS-B
10:13PM 41.7335 -76.2294 239° Southwest 440 506 38,800 1,260 Climbing FlightAware ADS-B
10:14PM 41.7014 -76.3013 239° Southwest 434 499 39,600 1,140 Climbing FlightAware ADS-B
10:14PM 41.6691 -76.3715 238° Southwest 420 483 40,000 360 Climbing FlightAware ADS-B
10:15PM 41.6392 -76.4370 239° Southwest 412 474 40,000  Level FlightAware ADS-B
10:15PM 41.6093 -76.5051 240° Southwest 418 481 40,000  Level FlightAware ADS-B
10:16PM 41.5786 -76.5718 238° Southwest 424 488 40,000  Level FlightAware ADS-B
10:16PM 41.5441 -76.6461 238° Southwest 429 494 40,000  Level FlightAware ADS-B
10:17PM 41.5128 -76.7145 239° Southwest 436 502 40,000  Level FlightAware ADS-B
10:17PM 41.4805 -76.7858 239° Southwest 441 507 40,000  Level FlightAware ADS-B
10:18PM 41.4470 -76.8580 238° Southwest 444 511 40,000  Level FlightAware ADS-B
10:19PM 41.4119 -76.9352 239° Southwest 447 514 40,000  Level FlightAware ADS-B
10:19PM 41.3769 -77.0103 238° Southwest 449 517 40,000  Level FlightAware ADS-B
10:20PM 41.3440 -77.0810 238° Southwest 451 519 40,000  Level FlightAware ADS-B
10:20PM 41.3110 -77.1541 239° Southwest 451 519 40,000  Level FlightAware ADS-B
10:21PM 41.2775 -77.2250 238° Southwest 451 519 40,000  Level FlightAware ADS-B
10:21PM 41.2442 -77.2977 239° Southwest 449 517 40,000  Level FlightAware ADS-B
10:22PM 41.2096 -77.3702 238° Southwest 447 514 40,000  Level FlightAware ADS-B
10:22PM 41.1800 -77.4330 238° Southwest 445 512 40,000  Level FlightAware
10:23PM 41.1468 -77.5047 238° Southwest 446 513 40,000  Level FlightAware ADS-B
10:23PM 41.1141 -77.5737 238° Southwest 443 510 40,000  Level FlightAware ADS-B
10:24PM 41.0552 -77.6997 238° Southwest 441 507 40,000  Level FlightAware ADS-B
10:25PM 41.0030 -77.8100 238° Southwest 441 507 40,000  Level FlightAware
10:26PM 40.9520 -77.9160 238° Southwest 441 507 40,000  Level FlightAware
10:27PM 40.8430 -78.1380 237° Southwest 441 507 40,000  Level FlightAware
10:30PM 40.6780 -78.4620 236° Southwest 446 513 40,000  Level FlightAware
10:30PM 40.6170 -78.5810 236° Southwest 451 519 40,000  Level FlightAware
10:31PM 40.5660 -78.6810 236° Southwest 452 520 40,000  Level FlightAware
10:32PM 40.5180 -78.7740 236° Southwest 452 520 40,000  Level FlightAware
10:33PM 40.4650 -78.8790 236° Southwest 450 518 40,000  Level FlightAware
10:33PM 40.4220 -78.9700 238° Southwest 448 516 40,000  Level FlightAware
10:34PM 40.3760 -79.0750 240° Southwest 446 513 40,000  Level FlightAware
10:35PM 40.3350 -79.1690 240° Southwest 444 511 40,000  Level FlightAware
10:35PM 40.2930 -79.2620 239° Southwest 443 510 40,000  Level FlightAware
10:36PM 40.2480 -79.3660 240° Southwest 442 509 40,000  Level FlightAware
10:37PM 40.2060 -79.4580 239° Southwest 441 507 40,000  Level FlightAware
10:38PM 40.1600 -79.5600 239° Southwest 441 507 40,000  Level FlightAware
10:38PM 40.1190 -79.6510 240° Southwest 439 505 40,000  Level FlightAware
10:39PM 40.0780 -79.7420 240° Southwest 436 502 40,000  Level FlightAware
10:40PM 40.0300 -79.8460 239° Southwest 435 501 40,000  Level FlightAware
10:40PM 39.9890 -79.9380 240° Southwest 432 497 40,000  Level FlightAware
10:41PM 39.9480 -80.0280 239° Southwest 429 494 40,000  Level FlightAware
10:42PM 39.9050 -80.1210 239° Southwest 426 490 40,000  Level FlightAware
10:42PM 39.8750 -80.1870 239° Southwest 426 490 40,000  Level FlightAware
10:43PM 39.8230 -80.2990 239° Southwest 425 489 40,000  Level FlightAware
10:44PM 39.8080 -80.3340 241° Southwest 424 488 40,000  Level FlightAware
10:45PM 39.7220 -80.5180 239° Southwest 425 489 40,000  Level FlightAware
10:45PM 39.6810 -80.6050 239° Southwest 426 490 40,000  Level FlightAware
10:46PM 39.6350 -80.7060 239° Southwest 426 490 40,000  Level FlightAware
10:47PM 39.5940 -80.7930 239° Southwest 426 490 40,000  Level FlightAware
10:48PM 39.5490 -80.8890 239° Southwest 424 488 40,000  Level FlightAware
10:48PM 39.5060 -80.9800 239° Southwest 423 487 40,000  Level FlightAware
10:49PM 39.4670 -81.0620 238° Southwest 424 488 40,000  Level FlightAware
10:50PM 39.4200 -81.1620 239° Southwest 424 488 40,000  Level FlightAware
10:50PM 39.3790 -81.2480 238° Southwest 424 488 40,000  Level FlightAware
10:51PM 39.3380 -81.3350 239° Southwest 425 489 40,000  Level FlightAware
10:52PM 39.2920 -81.4300 238° Southwest 424 488 40,000  Level FlightAware
10:52PM 39.2500 -81.5180 238° Southwest 426 490 40,000  Level FlightAware
10:53PM 39.2040 -81.6150 239° Southwest 427 491 40,000  Level FlightAware
10:54PM 39.1620 -81.7020 238° Southwest 425 489 40,000  Level FlightAware
10:55PM 39.1160 -81.7970 238° Southwest 427 491 40,000  Level FlightAware
10:55PM 39.0740 -81.8830 238° Southwest 427 491 40,000  Level FlightAware
10:56PM 39.0330 -81.9690 238° Southwest 427 491 40,000  Level FlightAware
10:57PM 38.9830 -82.0700 238° Southwest 428 493 40,000  Level FlightAware
10:57PM 38.9440 -82.1500 238° Southwest 428 493 40,000  Level FlightAware
10:58PM 38.8990 -82.2420 238° Southwest 427 491 40,000  Level FlightAware
10:59PM 38.8530 -82.3350 238° Southwest 428 493 40,000  Level FlightAware
10:59PM 38.8110 -82.4200 238° Southwest 428 493 40,000  Level FlightAware
11:00PM 38.7620 -82.5190 238° Southwest 427 491 40,000  Level FlightAware
11:01PM 38.7270 -82.5890 237° Southwest 426 490 40,000  Level FlightAware
11:01PM 38.6830 -82.6760 237° Southwest 426 490 40,000  Level FlightAware
11:02PM 38.6300 -82.7840 238° Southwest 425 489 40,000  Level FlightAware
11:03PM 38.5770 -82.8890 237° Southwest 425 489 40,000  Level FlightAware
11:04PM 38.5290 -82.9860 238° Southwest 426 490 40,000  Level FlightAware
11:05PM 38.4710 -83.1000 237° Southwest 427 491 40,000  Level FlightAware
11:05PM 38.4220 -83.1980 237° Southwest 429 494 40,000  Level FlightAware
11:06PM 38.3640 -83.3130 237° Southwest 429 494 40,000  Level FlightAware
11:07PM 38.3226 -83.3935 237° Southwest 430 495 40,000  Level FlightAware ADS-B
11:08PM 38.2830 -83.4720 237° Southwest 429 494 40,000  Level FlightAware
11:08PM 38.2460 -83.5440 237° Southwest 429 494 40,000  Level FlightAware
11:09PM 38.1810 -83.6710 237° Southwest 429 494 40,000  Level FlightAware
11:10PM 38.1320 -83.7640 236° Southwest 430 495 40,000  Level FlightAware
11:11PM 38.0950 -83.8350 237° Southwest 430 495 40,000  Level FlightAware
11:11PM 38.0390 -83.9460 237° Southwest 431 496 40,000  Level FlightAware
11:12PM 37.9960 -84.0280 236° Southwest 431 496 40,000  Level FlightAware
11:13PM 37.9490 -84.1210 237° Southwest 431 496 40,000  Level FlightAware
11:13PM 37.9195 -84.1759 236° Southwest 432 497 40,000  Level FlightAware ADS-B
11:14PM 37.8810 -84.2497 237° Southwest 432 497 40,000  Level FlightAware ADS-B
11:14PM 37.8474 -84.3146 237° Southwest 429 494 40,000  Level FlightAware ADS-B
11:15PM 37.8147 -84.3771 236° Southwest 428 493 40,000  Level FlightAware ADS-B
11:15PM 37.7815 -84.4393 236° Southwest 427 491 40,000  Level FlightAware ADS-B
11:16PM 37.7483 -84.5037 237° Southwest 427 491 40,000  Level FlightAware ADS-B
11:16PM 37.7151 -84.5660 236° Southwest 427 491 40,000  Level FlightAware ADS-B
11:17PM 37.6794 -84.6324 236° Southwest 428 493 40,000  Level FlightAware ADS-B
11:17PM 37.6392 -84.7092 237° Southwest 428 493 40,000  Level FlightAware ADS-B
11:18PM 37.6062 -84.7712 236° Southwest 427 491 40,000  Level FlightAware ADS-B
11:19PM 37.5638 -84.8517 236° Southwest 427 491 40,000  Level FlightAware ADS-B
11:19PM 37.5307 -84.9136 236° Southwest 426 490 40,000  Level FlightAware ADS-B
11:20PM 37.4976 -84.9753 236° Southwest 427 491 40,000  Level FlightAware ADS-B
11:20PM 37.4635 -85.0393 236° Southwest 427 491 40,000  Level FlightAware ADS-B
11:21PM 37.4291 -85.1031 236° Southwest 427 491 40,000  Level FlightAware ADS-B
11:21PM 37.3945 -85.1667 236° Southwest 427 491 40,000  Level FlightAware ADS-B
11:22PM 37.3613 -85.2304 237° Southwest 427 491 40,000  Level FlightAware ADS-B
11:22PM 37.3171 -85.3106 235° Southwest 427 491 40,000  Level FlightAware ADS-B
11:23PM 37.2560 -85.4240 236° Southwest 427 491 40,000  Level FlightAware
11:23PM 37.2463 -85.4420 236° Southwest 429 494 40,000  Level FlightAware ADS-B
11:24PM 37.1960 -85.5345 236° Southwest 429 494 40,000  Level FlightAware ADS-B
11:25PM 37.1534 -85.6124 236° Southwest 429 494 40,000  Level FlightAware ADS-B
11:26PM 37.1000 -85.7110 236° Southwest 429 494 40,000  Level FlightAware
11:26PM 37.0677 -85.7706 236° Southwest 430 495 40,000  Level FlightAware ADS-B
11:27PM 37.0017 -85.8897 235° Southwest 431 496 40,000  Level FlightAware ADS-B
11:27PM 36.9671 -85.9534 236° Southwest 431 496 40,000  Level FlightAware ADS-B
11:28PM 36.9318 -86.0167 235° Southwest 431 496 40,000  Level FlightAware ADS-B
11:29PM 36.8961 -86.0824 236° Southwest 431 496 40,000  Level FlightAware ADS-B
11:29PM 36.8617 -86.1437 235° Southwest 430 495 40,000  Level FlightAware ADS-B
11:30PM 36.8277 -86.2049 235° Southwest 431 496 40,000  Level FlightAware ADS-B
11:30PM 36.7923 -86.2703 236° Southwest 431 496 40,000  Level FlightAware ADS-B
11:31PM 36.7451 -86.3543 235° Southwest 432 497 40,000  Level FlightAware ADS-B
11:31PM 36.7089 -86.4197 235° Southwest 433 498 40,000  Level FlightAware ADS-B
11:32PM 36.6540 -86.5180 235° Southwest 433 498 40,000  Level FlightAware
11:33PM 36.6120 -86.5930 235° Southwest 433 498 40,000  Level FlightAware
11:33PM 36.5730 -86.6620 235° Southwest 433 498 40,000  Level FlightAware
11:34PM 36.5340 -86.7320 235° Southwest 433 498 40,000  Level FlightAware
11:35PM 36.4850 -86.8180 235° Southwest 433 498 40,000 -1,080 Level FlightAware
11:36PM 36.4100 -86.9530 235° Southwest 442 509 38,400 -1,560 Descending FlightAware
11:37PM 36.3450 -87.0640 234° Southwest 438 504 37,600 -900 Descending FlightAware
11:37PM 36.2950 -87.1540 235° Southwest 436 502 36,900 -540 Descending FlightAware
11:38PM 36.2570 -87.2180 234° Southwest 436 502 36,900  Level FlightAware
11:39PM 36.2170 -87.2870 234° Southwest 436 502 36,900 -1,440 Level FlightAware
11:39PM 36.1590 -87.3920 236° Southwest 441 507 35,000 -1,320 Descending FlightAware
11:40PM 36.1020 -87.4910 235° Southwest 447 514 35,000  Level FlightAware
11:41PM 36.0360 -87.6030 234° Southwest 446 513 35,000  Level FlightAware
11:42PM 35.9940 -87.6740 234° Southwest 446 513 35,000  Level FlightAware
11:42PM 35.9530 -87.7440 234° Southwest 446 513 35,000  Level FlightAware
11:43PM 35.9020 -87.8310 234° Southwest 446 513 35,000  Level FlightAware
11:44PM 35.8600 -87.9010 233° Southwest 446 513 35,000  Level FlightAware
11:44PM 35.8190 -87.9710 234° Southwest 446 513 35,000  Level FlightAware
11:45PM 35.7780 -88.0410 234° Southwest 446 513 35,000  Level FlightAware
11:46PM 35.7370 -88.1110 234° Southwest 446 513 35,000  Level FlightAware
11:46PM 35.6950 -88.1810 234° Southwest 446 513 35,000  Level FlightAware
11:47PM 35.6440 -88.2680 234° Southwest 446 513 35,000  Level FlightAware
11:48PM 35.6030 -88.3380 234° Southwest 446 513 35,000  Level FlightAware
11:49PM 35.5610 -88.4080 234° Southwest 446 513 35,000  Level FlightAware
11:49PM 35.5200 -88.4780 234° Southwest 446 513 35,000  Level FlightAware
11:50PM 35.4690 -88.5650 234° Southwest 446 513 35,000 -9,720 Level FlightAware
11:51PM 35.2767 -88.7622 234° Southwest 378 435 16,100 -10,020 Descending Memphis Center
11:52PM 35.2067 -88.8525 227° Southwest 378 435 13,800 -2,220 Descending Memphis Center
11:53PM 35.1369 -88.9378 225° Southwest 367 422 11,700 -1,800 Descending Memphis Center
11:54PM 35.0731 -89.0175 226° Southwest 353 406 10,300 -1,140 Descending Memphis Center
11:55PM 35.0322 -89.0992 239° Southwest 317 365 9,500 -1,140 Descending Memphis Center
11:56PM 35.0372 -89.1931 274° West 271 312 8,100 -1,380 Descending Memphis Center
11:57PM 35.0403 -89.2842 272° West 276 318 6,800 -1,080 Descending Memphis Center
11:58PM 35.0431 -89.3678 272° West 259 298 6,000 -420 Descending Memphis Center
11:59PM 35.0456 -89.4414 272° West 235 270 6,000  Level Memphis Center
12:00AM 35.0461 -89.5175 271° West 225 259 6,000 -300 Level Memphis Center
12:01AM 35.0508 -89.5911 275° West 220 253 5,500 -720 Descending Memphis Center
12:02AM 35.0533 -89.6647 272° West 220 253 4,600 -780 Descending Memphis Center
12:03AM 35.0536 -89.7228 270° West 208 239 4,000 -780 Descending Memphis Center
12:04AM 35.0539 -89.7786 270° West 186 214 3,100 -900 Descending Memphis Center
12:05AM 35.0564 -89.8344 273° West 168 193 2,200 -900 Descending Memphis Center
12:06AM 35.0586 -89.8853 273° West 157 181 1,400 -780 Descending Memphis Center
12:07AM 35.0500 -89.9000 234° Southwest 108 124 1,000 -660 Descending KMEM
12:08AM 35.0667 -89.9500 292° West 122 140 400 -600 Descending KMEM
12:10AM 35.0333 -89.9667 270° West  Level FlightAware Approximate
12:17AM 35.0424 -89.9767 270° West  Level Estimated
12:18AM 35.0424 -89.9767 270° West  Level Estimated
12:19AM 35.0424 -89.9767 270° West  Level Estimated
12:20AM 35.0424 -89.9767 270° West  Level Estimated
12:21AM 35.0424 -89.9767 270° West  Level Estimated
12:22AM 35.0424 -89.9767 270° West  Level Estimated
12:23AM 35.0424 -89.9767 270° West  Level Estimated